Latest Weather Observations for Penrith

IDN60801

Issued at 6:32 pm EST Monday 22 July 2019 (issued every 10 minutes, with the page automatically refreshed every 10 minutes)

About weather observations | Map of weather stations | Latest weather observations for NSW | Other Formats
Station Details ID: 067113 Name: PENRITH LAKES AWS Lat: -33.72 Lon: 150.68 Height: 24.7 m
Data from the previous 72 hours. | See also: Recent months at Penrith
Date/Time
EST
Temp
°C
App
Temp
°C
Dew
Point
°C
Rel
Hum
%
Delta-T
°C
Wind Press
QNH
hPa
Press
MSL
hPa
Rain since
9am
mm
Dir  Spd
km/h
Gust
km/h
Spd
kts
Gust
kts
22/06:30pm 13.5 13.6 10.1 80 1.8 CALM 0 0 0 0 - - 0.0
22/06:00pm 14.4 14.5 10.0 75 2.3 CALM 0 2 0 1 - - 0.0
22/05:30pm 15.7 15.0 10.0 69 3.0 SW 4 4 2 2 - - 0.0
22/05:00pm 17.7 17.6 9.3 58 4.4 CALM 0 0 0 0 - - 0.0
22/04:30pm 19.2 19.2 9.9 55 5.0 CALM 0 0 0 0 - - 0.0
22/04:00pm 19.5 18.9 9.1 51 5.5 NNW 2 6 1 3 - - 0.0
22/03:30pm 18.9 17.9 8.8 52 5.3 W 4 6 2 3 - - 0.0
22/03:00pm 19.6 16.7 8.0 47 6.0 NE 13 24 7 13 - - 0.0
22/02:30pm 19.5 17.8 8.2 48 5.8 N 7 13 4 7 - - 0.0
22/02:00pm 19.4 17.8 6.2 42 6.6 SSW 4 6 2 3 - - 0.0
22/01:30pm 19.7 18.2 6.8 43 6.5 NW 4 6 2 3 - - 0.0
22/01:00pm 18.4 17.0 7.2 48 5.6 WSW 4 6 2 3 - - 0.0
22/12:30pm 19.5 17.7 7.3 45 6.2 SW 6 6 3 3 - - 0.0
22/12:00pm 18.3 16.5 7.1 48 5.6 SW 6 9 3 5 - - 0.0
22/11:30am 17.8 16.3 7.0 49 5.4 NNW 4 9 2 5 - - 0.0
22/11:00am 17.0 15.5 6.8 51 5.1 SE 4 7 2 4 - - 0.0
22/10:30am 14.6 13.2 7.2 61 3.6 NNE 4 4 2 2 - - 0.0
22/10:00am 13.9 12.5 7.4 65 3.2 NE 4 9 2 5 - - 0.0
22/09:30am 12.1 10.9 8.0 76 2.0 S 4 6 2 3 - - 0.0
22/09:00am 10.3 9.3 7.4 82 1.4 SSW 2 2 1 1 - - -
22/08:30am 9.7 9.3 8.1 90 0.8 CALM 0 6 0 3 - - -
22/08:00am 8.5 8.1 8.1 97 0.2 CALM 0 4 0 2 - - -
22/07:30am 7.6 7.0 7.2 97 0.2 CALM 0 0 0 0 - - -
22/07:00am 7.4 6.7 6.8 96 0.3 CALM 0 0 0 0 - - -
22/06:30am 7.5 6.3 6.4 93 0.5 WNW 2 6 1 3 - - -
22/06:00am 7.2 5.8 5.7 90 0.7 NNW 2 4 1 2 - - -
22/05:30am 7.5 6.1 5.5 87 0.9 NNW 2 6 1 3 - - -
22/05:00am 8.5 6.3 5.4 81 1.4 SW 6 6 3 3 - - -
22/04:30am 8.9 7.6 5.8 81 1.4 SE 2 6 1 3 - - -
22/04:00am 9.2 8.2 5.4 77 1.7 CALM 0 2 0 1 - - -
22/03:30am 9.1 7.7 5.7 79 1.5 SE 2 4 1 2 - - -
22/03:00am 9.0 7.2 5.4 78 1.6 S 4 6 2 3 - - 0.0
22/02:30am 9.0 7.3 5.7 80 1.5 SSW 4 6 2 3 - - -
22/02:00am 8.9 8.1 6.3 84 1.2 CALM 0 2 0 1 - - -
22/01:30am 8.8 7.6 6.3 84 1.2 SSE 2 6 1 3 - - -
22/01:00am 8.7 7.1 6.3 85 1.1 S 4 6 2 3 - - -
22/12:30am 7.7 5.5 5.5 86 1.0 N 6 7 3 4 - - -
22/12:00am 8.2 6.8 5.7 84 1.1 N 2 4 1 2 - - -
 
Date/Time
EST
Temp
°C
App
Temp
°C
Dew
Point
°C
Rel
Hum
%
Delta-T
°C
Wind Press
QNH
hPa
Press
MSL
hPa
Rain since
9am
mm
Dir  Spd
km/h
Gust
km/h
Spd
kts
Gust
kts
21/11:30pm 7.0 5.5 4.8 86 1.0 NE 2 6 1 3 - - -
21/11:00pm 8.5 6.9 6.3 86 1.0 SE 4 6 2 3 - - -
21/10:30pm 8.3 7.3 5.4 82 1.3 CALM 0 4 0 2 - - -
21/10:00pm 8.9 7.3 6.3 84 1.2 SW 4 4 2 2 - - -
21/09:30pm 8.8 7.2 4.6 75 1.9 NNE 2 4 1 2 - - -
21/09:00pm 9.3 6.9 5.3 76 1.8 WNW 7 9 4 5 - - 0.0
21/08:30pm 10.1 8.4 3.8 65 2.8 WSW 2 4 1 2 - - -
21/08:00pm 11.3 9.2 3.8 60 3.3 W 4 9 2 5 - - -
21/07:30pm 12.8 9.8 2.1 48 4.6 WNW 7 11 4 6 - - -
21/07:00pm 13.1 10.9 3.5 52 4.3 WSW 4 6 2 3 - - -
21/06:30pm 14.6 11.9 2.8 45 5.3 N 6 9 3 5 - - -
21/06:00pm 14.9 12.2 2.8 44 5.4 NW 6 9 3 5 - - -
21/05:30pm 16.9 13.0 1.0 34 7.0 WNW 11 13 6 7 - - -
21/05:00pm 19.2 14.9 0.8 29 8.2 NW 13 20 7 11 - - -
21/04:30pm 21.5 16.1 1.2 26 9.3 NW 19 26 10 14 - - -
21/04:00pm 22.5 16.6 1.5 25 9.8 WNW 22 35 12 19 - - -
21/03:30pm 23.1 17.7 1.5 24 10.1 NW 19 35 10 19 - - -
21/03:00pm 23.8 19.8 2.6 25 10.2 WNW 13 22 7 12 - - -
21/02:30pm 24.2 20.6 2.9 25 10.3 W 11 20 6 11 - - -
21/02:00pm 23.9 18.7 2.7 25 10.2 WNW 19 32 10 17 - - -
21/01:30pm 23.8 17.4 3.2 26 10.0 NW 26 48 14 26 - - -
21/01:22pm 23.7 16.8 2.5 25 10.1 NW 28 48 15 26 - - -
21/01:00pm 23.6 18.1 4.0 28 9.6 NW 22 41 12 22 - - -
21/12:30pm 22.0 19.7 5.0 33 8.4 SE 6 11 3 6 - - -
21/12:00pm 19.8 17.7 5.8 40 6.9 SSE 6 9 3 5 - - -
21/11:30am 16.9 15.0 6.7 51 5.0 SSE 6 9 3 5 - - -
21/11:00am 14.9 13.1 7.0 59 3.9 S 6 9 3 5 - - -
21/10:30am 12.7 10.6 5.6 62 3.3 SSW 6 9 3 5 - - -
21/10:00am 11.8 10.0 5.2 64 3.0 NNE 4 7 2 4 - - 0.0
21/09:30am 9.3 8.4 7.6 89 0.8 WSW 2 4 1 2 - - 0.0
21/09:00am 7.4 6.3 7.0 97 0.2 WSW 2 4 1 2 - - 0.0
21/08:30am 6.1 5.1 5.8 98 0.1 CALM 0 0 0 0 - - 0.0
21/08:00am 4.8 3.6 4.5 98 0.1 CALM 0 0 0 0 - - 0.0
21/07:30am 2.9 1.3 2.6 98 0.1 CALM 0 0 0 0 - - 0.0
21/07:00am 2.2 0.1 1.9 98 0.1 SSW 2 4 1 2 - - 0.0
21/06:30am 2.3 -0.7 2.0 98 0.1 S 7 9 4 5 - - 0.0
21/06:00am 2.3 -0.1 2.0 98 0.1 SSE 4 6 2 3 - - 0.0
21/05:30am 2.8 0.5 2.5 98 0.1 SSW 4 6 2 3 - - 0.0
21/05:00am 3.1 1.2 2.8 98 0.1 SSE 2 4 1 2 - - 0.0
21/04:30am 2.9 1.0 2.6 98 0.1 S 2 4 1 2 - - 0.0
21/04:00am 3.5 1.7 3.2 98 0.1 SSE 2 4 1 2 - - 0.0
21/03:30am 3.0 0.7 2.7 98 0.1 SE 4 4 2 2 - - 0.0
21/03:00am 3.1 0.8 2.8 98 0.1 SSW 4 6 2 3 - - 0.0
21/02:30am 3.7 1.5 3.4 98 0.1 SSW 4 4 2 2 - - 0.0
21/02:00am 4.2 2.5 3.9 98 0.1 SE 2 4 1 2 - - 0.0
21/01:30am 4.4 3.1 4.1 98 0.1 CALM 0 0 0 0 - - 0.0
21/01:00am 5.2 4.1 4.9 98 0.1 CALM 0 0 0 0 - - 0.0
21/12:30am 5.4 4.3 5.1 98 0.1 CALM 0 0 0 0 - - 0.0
21/12:00am 5.0 3.8 4.7 98 0.1 CALM 0 4 0 2 - - 0.0
 
Date/Time
EST
Temp
°C
App
Temp
°C
Dew
Point
°C
Rel
Hum
%
Delta-T
°C
Wind Press
QNH
hPa
Press
MSL
hPa
Rain since
9am
mm
Dir  Spd
km/h
Gust
km/h
Spd
kts
Gust
kts
20/11:30pm 5.7 4.7 5.4 98 0.1 CALM 0 0 0 0 - - 0.0
20/11:00pm 6.4 5.1 6.1 98 0.1 SSE 2 2 1 1 - - 0.0
20/10:30pm 6.6 5.8 6.3 98 0.1 CALM 0 0 0 0 - - 0.0
20/10:00pm 7.3 6.2 7.0 98 0.1 NW 2 2 1 1 - - 0.0
20/09:30pm 7.4 6.7 7.1 98 0.1 CALM 0 4 0 2 - - 0.0
20/09:00pm 7.9 7.3 7.6 98 0.1 CALM 0 0 0 0 - - 0.0
20/08:30pm 8.4 8.0 8.1 98 0.1 CALM 0 2 0 1 - - 0.0
20/08:00pm 8.7 8.3 8.4 98 0.1 CALM 0 4 0 2 - - 0.0
20/07:30pm 9.7 9.4 8.5 92 0.6 CALM 0 0 0 0 - - 0.0
20/07:00pm 9.6 9.0 8.8 95 0.4 SW 2 4 1 2 - - 0.0
20/06:30pm 10.4 9.2 8.0 85 1.2 S 4 6 2 3 - - 0.0
20/06:00pm 11.8 11.2 7.5 75 2.1 CALM 0 6 0 3 - - 0.0
20/05:30pm 13.0 12.4 7.2 68 2.8 CALM 0 0 0 0 - - 0.0
20/05:00pm 14.4 12.7 7.7 64 3.3 SW 6 6 3 3 - - 0.0
20/04:30pm 17.6 15.9 7.4 51 5.1 WSW 6 7 3 4 - - 0.0
20/04:00pm 19.5 17.9 6.3 42 6.6 SW 4 9 2 5 - - 0.0
20/03:30pm 20.3 19.5 6.6 41 6.9 CALM 0 2 0 1 - - 0.0
20/03:00pm 19.4 17.5 6.8 44 6.3 WSW 6 7 3 4 - - 0.0
20/02:30pm 19.6 18.6 7.4 45 6.2 NNW 2 6 1 3 - - 0.0
20/02:00pm 18.7 17.3 7.2 47 5.8 NNW 4 7 2 4 - - 0.0
20/01:30pm 18.2 16.5 7.6 50 5.4 WSW 6 11 3 6 - - 0.0
20/01:00pm 16.4 15.0 7.3 55 4.5 SW 4 6 2 3 - - 0.0
20/12:30pm 15.5 13.8 7.5 59 4.0 WSW 6 7 3 4 - - 0.0
20/12:00pm 14.9 13.6 7.5 61 3.7 SW 4 6 2 3 - - 0.0
20/11:30am 13.7 12.3 7.2 65 3.2 SW 4 6 2 3 - - 0.0
20/11:00am 12.3 10.8 7.0 70 2.5 S 4 6 2 3 - - 0.0
20/10:30am 11.3 10.2 6.8 74 2.1 N 2 6 1 3 - - 0.0
20/10:00am 9.3 8.2 7.1 86 1.0 SW 2 6 1 3 - - 0.0
20/09:30am 8.8 8.3 7.7 93 0.5 CALM 0 2 0 1 - - 0.0
20/09:00am 6.8 6.0 6.5 98 0.1 CALM 0 4 0 2 - - 0.0
20/08:30am 4.9 3.7 4.6 98 0.1 CALM 0 0 0 0 - - 0.0
20/08:00am 3.7 1.9 3.4 98 0.1 NW 2 4 1 2 - - 0.0
20/07:30am 2.5 0.9 2.2 98 0.1 CALM 0 4 0 2 - - 0.0
20/07:00am 2.2 0.5 1.9 98 0.1 CALM 0 0 0 0 - - 0.0
20/06:30am 2.9 0.6 2.6 98 0.1 SSW 4 6 2 3 - - 0.0
20/06:00am 2.7 0.3 2.4 98 0.1 S 4 4 2 2 - - 0.0
20/05:30am 3.2 1.7 2.9 98 0.1 CALM 0 0 0 0 - - 0.0
20/05:00am 3.0 1.1 2.7 98 0.1 SSE 2 2 1 1 - - 0.0
20/04:30am 3.5 1.7 3.2 98 0.1 S 2 6 1 3 - - 0.0
20/04:00am 4.0 2.6 3.7 98 0.1 CALM 0 0 0 0 - - 0.0
20/03:30am 4.3 3.0 4.0 98 0.1 CALM 0 0 0 0 - - 0.0
20/03:00am 4.3 3.0 4.0 98 0.1 CALM 0 0 0 0 - - 0.0
20/02:30am 4.3 3.0 4.0 98 0.1 CALM 0 0 0 0 - - 0.0
20/02:00am 4.9 3.3 4.6 98 0.1 NNW 2 4 1 2 - - 0.0
20/01:30am 5.0 3.8 4.7 98 0.1 CALM 0 0 0 0 - - 0.0
20/01:00am 5.6 4.2 5.3 98 0.1 SE 2 4 1 2 - - 0.0
20/12:30am 5.8 4.0 5.5 98 0.1 S 4 4 2 2 - - 0.0
20/12:00am 6.0 4.3 5.7 98 0.1 S 4 4 2 2 - - 0.0
 
Date/Time
EST
Temp
°C
App
Temp
°C
Dew
Point
°C
Rel
Hum
%
Delta-T
°C
Wind Press
QNH
hPa
Press
MSL
hPa
Rain since
9am
mm
Dir  Spd
km/h
Gust
km/h
Spd
kts
Gust
kts
19/11:30pm 6.4 4.7 6.1 98 0.1 S 4 6 2 3 - - 0.0
19/11:00pm 6.7 4.9 5.5 92 0.5 W 4 6 2 3 - - 0.0
19/10:30pm 7.3 6.1 6.6 95 0.3 WSW 2 6 1 3 - - 0.0
19/10:00pm 7.8 6.7 6.7 93 0.5 WSW 2 2 1 1 - - 0.0
19/09:30pm 8.2 7.4 6.7 90 0.7 CALM 0 0 0 0 - - 0.0
19/09:00pm 8.4 6.7 5.9 84 1.1 WSW 4 6 2 3 - - 0.0
19/08:30pm 9.4 7.3 5.8 78 1.6 W 6 9 3 5 - - 0.0
19/08:00pm 10.6 8.2 6.9 78 1.8 SE 9 13 5 7 - - 0.0
19/07:30pm 10.2 8.5 7.6 84 1.2 SSE 6 7 3 4 - - 0.0
19/07:00pm 9.9 9.4 8.0 88 0.9 CALM 0 4 0 2 - - 0.0

Other formats

Comma delimited format used in spreadsheet applications
http://www.bom.gov.au/fwo/IDN60801/IDN60801.94763.axf

JavaScript Object Notation format (JSON) in row-major order
http://www.bom.gov.au/fwo/IDN60801/IDN60801.94763.json

Data quality

Most of these data are generated automatically and are frequently updated. Quality checks on data are not normally performed. It is possible for incorrect values to appear. Refer to information at About Latest Weather Observations and please check the disclaimer before using these data.